createdAt,value
2017-08-25T00:00:21.049Z,9.67
2017-08-25T00:02:47.624Z,12.83
2017-08-25T00:05:14.198Z,8.43
2017-08-25T00:07:40.816Z,13.50
2017-08-25T00:10:07.412Z,11.10
2017-08-25T00:12:33.984Z,15.57
2017-08-25T00:15:00.584Z,8.60
2017-08-25T00:17:27.159Z,9.67
2017-08-25T00:19:53.772Z,9.17
2017-08-25T00:22:20.368Z,13.27
2017-08-25T00:24:46.949Z,12.20
2017-08-25T00:27:13.527Z,9.57
2017-08-25T00:29:40.130Z,10.40
2017-08-25T00:32:06.737Z,7.37
2017-08-25T00:34:33.313Z,11.07
2017-08-25T00:36:59.908Z,10.63
2017-08-25T00:39:26.484Z,11.60
2017-08-25T00:41:53.061Z,14.57
2017-08-25T00:44:19.692Z,13.40
2017-08-25T00:46:46.281Z,13.83
2017-08-25T00:49:12.850Z,15.63
2017-08-25T00:51:39.583Z,12.17
2017-08-25T00:54:06.156Z,9.10
2017-08-25T00:56:32.729Z,9.90
2017-08-25T00:58:59.318Z,8.63
2017-08-25T01:01:25.890Z,15.87
2017-08-25T01:03:52.492Z,9.43
2017-08-25T01:06:19.064Z,10.63
2017-08-25T01:08:45.633Z,7.47
2017-08-25T01:11:12.208Z,11.20
2017-08-25T01:13:38.807Z,12.13
2017-08-25T01:16:05.376Z,7.60
2017-08-25T01:18:31.987Z,9.83
2017-08-25T01:20:58.648Z,8.30
2017-08-25T01:23:25.200Z,11.33
2017-08-25T01:25:51.772Z,11.63
2017-08-25T01:28:18.366Z,10.60
2017-08-25T01:30:44.940Z,12.10
2017-08-25T01:33:11.520Z,13.23
2017-08-25T01:35:38.180Z,7.87
2017-08-25T01:38:04.789Z,13.60
2017-08-25T01:40:31.340Z,9.87
2017-08-25T01:42:57.930Z,13.90
2017-08-25T01:45:24.502Z,9.67
2017-08-25T01:47:51.077Z,10.37
2017-08-25T01:50:17.688Z,8.17
2017-08-25T01:52:44.261Z,9.93
2017-08-25T01:55:10.832Z,11.73
2017-08-25T01:57:37.444Z,7.97
2017-08-25T02:00:04.028Z,10.90
2017-08-25T02:02:30.606Z,14.97
2017-08-25T02:04:57.192Z,7.50
2017-08-25T02:07:23.767Z,11.27
2017-08-25T02:09:50.335Z,9.67
2017-08-25T02:12:16.952Z,10.30
2017-08-25T02:14:43.582Z,14.63
2017-08-25T02:17:10.135Z,17.30
2017-08-25T02:19:36.732Z,12.40
2017-08-25T02:22:03.308Z,13.50
2017-08-25T02:24:29.884Z,10.30
2017-08-25T02:26:56.465Z,9.93
2017-08-25T02:29:23.048Z,12.20
2017-08-25T02:31:49.772Z,8.50
2017-08-25T02:34:16.369Z,14.80
2017-08-25T02:36:42.953Z,8.17
2017-08-25T02:39:09.540Z,11.40
2017-08-25T02:41:36.132Z,7.93
2017-08-25T02:44:02.728Z,12.23
2017-08-25T02:46:29.377Z,10.33
2017-08-25T02:48:56.064Z,10.00
2017-08-25T02:51:22.642Z,10.93
2017-08-25T02:53:49.218Z,13.80
2017-08-25T02:56:15.797Z,9.80
2017-08-25T02:58:42.372Z,11.10
2017-08-25T03:01:08.954Z,11.40
2017-08-25T03:03:35.546Z,11.40
2017-08-25T03:06:02.128Z,11.60
2017-08-25T03:08:28.704Z,13.03
2017-08-25T03:10:55.296Z,14.53
2017-08-25T03:13:21.919Z,9.03
2017-08-25T03:15:48.498Z,10.10
2017-08-25T03:18:15.077Z,10.33
2017-08-25T03:20:41.656Z,11.80
2017-08-25T03:23:08.289Z,11.63
2017-08-25T03:25:34.896Z,12.07
2017-08-25T03:28:01.472Z,10.00
2017-08-25T03:30:28.053Z,10.97
2017-08-25T03:32:54.636Z,13.83
2017-08-25T03:35:21.220Z,12.90
2017-08-25T03:37:47.792Z,11.67
2017-08-25T03:40:14.517Z,9.47
2017-08-25T03:42:41.089Z,8.73
2017-08-25T03:45:07.656Z,9.03
2017-08-25T03:47:34.254Z,15.10
2017-08-25T03:50:00.833Z,12.40
2017-08-25T03:52:27.408Z,10.23
2017-08-25T03:54:53.991Z,9.17
2017-08-25T03:57:20.577Z,13.50
2017-08-25T03:59:47.197Z,12.50
2017-08-25T04:02:13.779Z,9.53
2017-08-25T04:04:40.362Z,12.87
2017-08-25T04:07:06.940Z,10.07
2017-08-25T04:09:33.544Z,9.17
2017-08-25T04:12:00.120Z,12.50
2017-08-25T04:14:26.705Z,10.80
2017-08-25T04:16:53.305Z,10.60
2017-08-25T04:19:19.900Z,15.40
2017-08-25T04:21:46.503Z,11.17
2017-08-25T04:24:13.091Z,10.97
2017-08-25T04:26:39.671Z,10.63
2017-08-25T04:29:06.243Z,15.70
2017-08-25T04:31:32.841Z,15.20
2017-08-25T04:33:59.416Z,8.87
2017-08-25T04:36:26.002Z,10.77
2017-08-25T04:38:52.648Z,20.37
2017-08-25T04:41:19.209Z,14.70
2017-08-25T04:43:45.785Z,14.30
2017-08-25T04:46:12.408Z,11.27
2017-08-25T04:48:38.976Z,11.03
2017-08-25T04:51:05.553Z,12.17
2017-08-25T04:53:32.166Z,11.27
2017-08-25T04:55:58.740Z,13.10
2017-08-25T04:58:25.317Z,11.43
2017-08-25T05:00:51.904Z,10.73
2017-08-25T05:03:18.490Z,11.63
2017-08-25T05:05:45.072Z,9.03
2017-08-25T05:08:11.656Z,9.20
2017-08-25T05:10:39.050Z,10.70
2017-08-25T05:13:05.724Z,11.70
2017-08-25T05:15:32.324Z,9.60
2017-08-25T05:17:58.892Z,10.70
2017-08-25T05:20:25.476Z,11.50
2017-08-25T05:22:52.060Z,9.97
2017-08-25T05:25:18.637Z,10.30
2017-08-25T05:27:45.225Z,10.07
2017-08-25T05:30:18.629Z,12.97
2017-08-25T05:32:45.206Z,16.00
2017-08-25T05:35:11.777Z,12.70
2017-08-25T05:37:38.376Z,15.93
2017-08-25T05:40:04.975Z,14.00
2017-08-25T05:42:31.540Z,12.83
2017-08-25T05:44:58.141Z,12.53
2017-08-25T05:47:24.704Z,12.00
2017-08-25T05:49:51.276Z,9.50
2017-08-25T05:52:17.960Z,12.43
2017-08-25T05:54:44.536Z,10.03
2017-08-25T05:57:11.137Z,13.70
2017-08-25T05:59:37.709Z,11.13
2017-08-25T06:02:04.292Z,20.80
2017-08-25T06:04:30.877Z,14.23
2017-08-25T06:06:57.460Z,15.50
2017-08-25T06:09:24.049Z,12.93
2017-08-25T06:11:50.621Z,15.03
2017-08-25T06:14:17.313Z,12.43
2017-08-25T06:16:43.866Z,12.30
2017-08-25T06:19:10.449Z,13.20
2017-08-25T06:21:37.053Z,14.10
2017-08-25T06:24:03.641Z,12.00
2017-08-25T06:26:30.216Z,13.63
2017-08-25T06:28:56.850Z,11.00
2017-08-25T06:31:23.459Z,13.30
2017-08-25T06:33:50.016Z,11.87
2017-08-25T06:36:16.619Z,12.43
2017-08-25T06:38:43.192Z,16.90
2017-08-25T06:41:09.772Z,16.17
2017-08-25T06:43:36.381Z,16.00
2017-08-25T06:46:02.967Z,17.93
2017-08-25T06:48:29.550Z,15.97
2017-08-25T06:50:56.236Z,13.50
2017-08-25T06:53:22.792Z,14.50
2017-08-25T06:55:49.373Z,15.70
2017-08-25T06:58:15.968Z,12.50
2017-08-25T07:00:42.544Z,16.47
2017-08-25T07:03:09.118Z,11.43
2017-08-25T07:05:35.721Z,22.93
2017-08-25T07:08:02.384Z,14.30
2017-08-25T07:10:28.940Z,13.80
2017-08-25T07:12:55.528Z,16.70
2017-08-25T07:15:22.112Z,18.40
2017-08-25T07:17:48.693Z,18.60
2017-08-25T07:20:15.430Z,15.20
2017-08-25T07:22:42.014Z,15.03
2017-08-25T07:25:08.656Z,16.70
2017-08-25T07:27:35.265Z,19.63
2017-08-25T07:30:01.841Z,12.73
2017-08-25T07:32:28.420Z,12.87
2017-08-25T07:34:55.016Z,12.90
2017-08-25T07:37:21.589Z,14.07
2017-08-25T07:39:48.173Z,12.60
2017-08-25T07:42:14.769Z,15.17
2017-08-25T07:44:41.341Z,14.40
2017-08-25T07:47:07.920Z,15.00
2017-08-25T07:49:34.519Z,13.30
2017-08-25T07:52:01.087Z,12.27
2017-08-25T07:54:27.662Z,14.97
2017-08-25T07:56:54.253Z,14.37
2017-08-25T08:01:56.565Z,14.60
2017-08-25T08:04:23.143Z,12.67
2017-08-25T08:06:49.726Z,12.90
2017-08-25T08:09:16.326Z,14.30
2017-08-25T08:11:42.892Z,19.40
2017-08-25T08:14:09.473Z,16.53
2017-08-25T08:16:36.061Z,19.53
2017-08-25T08:19:02.641Z,12.90
2017-08-25T08:21:29.216Z,13.93
2017-08-25T08:23:55.817Z,13.37
2017-08-25T08:26:22.399Z,14.67
2017-08-25T08:28:48.969Z,18.87
2017-08-25T08:31:15.568Z,11.50
2017-08-25T08:33:42.146Z,13.33
2017-08-25T08:36:23.620Z,15.87
2017-08-25T08:38:50.190Z,12.10
2017-08-25T08:41:16.773Z,10.93
2017-08-25T08:43:43.357Z,15.37
2017-08-25T08:46:09.945Z,13.43
2017-08-25T08:48:36.521Z,13.07
2017-08-25T08:51:03.120Z,14.63
2017-08-25T08:53:29.692Z,15.03
2017-08-25T08:55:56.265Z,12.17
2017-08-25T08:58:22.857Z,10.70
2017-08-25T09:00:49.432Z,10.97
2017-08-25T09:03:16.012Z,12.53
2017-08-25T09:05:48.324Z,14.50
2017-08-25T09:08:14.949Z,11.13
2017-08-25T09:10:41.529Z,13.20
2017-08-25T09:13:08.129Z,19.50
2017-08-25T09:15:34.705Z,12.20
2017-08-25T09:18:01.276Z,15.07
2017-08-25T09:20:27.872Z,13.27
2017-08-25T09:22:54.456Z,17.03
2017-08-25T09:25:21.052Z,12.70
2017-08-25T09:27:47.646Z,11.30
2017-08-25T09:30:14.213Z,14.83
2017-08-25T09:32:40.790Z,14.37
2017-08-25T09:35:07.385Z,16.47
2017-08-25T09:37:33.964Z,12.30
2017-08-25T09:40:00.544Z,16.40
2017-08-25T09:42:27.142Z,11.53
2017-08-25T09:44:53.724Z,12.60
2017-08-25T09:47:20.304Z,12.23
2017-08-25T09:49:46.901Z,11.70
2017-08-25T09:52:13.479Z,17.50
2017-08-25T09:54:40.060Z,16.60
2017-08-25T09:57:06.659Z,15.27
2017-08-25T09:59:33.236Z,12.70
2017-08-25T10:01:59.886Z,9.80
2017-08-25T10:04:26.551Z,12.20
2017-08-25T10:06:53.100Z,9.20
2017-08-25T10:09:19.689Z,12.63
2017-08-25T10:11:46.279Z,14.63
2017-08-25T10:14:12.851Z,7.80
2017-08-25T10:16:39.492Z,10.00
2017-08-25T10:19:06.098Z,8.80
2017-08-25T10:21:32.732Z,7.00
2017-08-25T10:23:59.304Z,10.23
2017-08-25T10:26:25.896Z,6.20
2017-08-25T10:28:52.466Z,8.07
2017-08-25T10:31:19.032Z,6.80
2017-08-25T10:33:45.629Z,10.93
2017-08-25T10:36:17.953Z,9.87
2017-08-25T10:38:50.376Z,6.83
2017-08-25T10:41:22.806Z,7.60
2017-08-25T10:43:55.382Z,8.80
2017-08-25T10:46:21.947Z,6.60
2017-08-25T10:48:48.520Z,16.43
2017-08-25T10:51:15.101Z,9.80
2017-08-25T10:53:41.699Z,11.70
2017-08-25T10:56:08.348Z,6.33
2017-08-25T10:58:34.936Z,8.67
2017-08-25T11:01:01.508Z,5.80
2017-08-25T11:03:28.087Z,11.13
2017-08-25T11:05:54.673Z,9.60
2017-08-25T11:08:21.269Z,6.27
2017-08-25T11:10:47.821Z,8.53
2017-08-25T11:13:14.421Z,5.33
2017-08-25T11:15:41.036Z,8.43
2017-08-25T11:18:07.649Z,9.73
2017-08-25T11:20:34.247Z,6.07
2017-08-25T11:23:00.824Z,5.50
2017-08-25T11:25:27.437Z,7.53
2017-08-25T11:27:54.164Z,8.50
2017-08-25T11:30:20.737Z,7.10
2017-08-25T11:32:47.345Z,7.67
2017-08-25T11:35:13.920Z,5.83
2017-08-25T11:37:40.520Z,5.37
2017-08-25T11:40:07.126Z,5.63
2017-08-25T11:42:33.739Z,7.33
2017-08-25T11:45:00.325Z,6.83
2017-08-25T11:47:26.910Z,7.47
2017-08-25T11:49:53.496Z,7.43
2017-08-25T11:52:20.090Z,4.20
2017-08-25T11:54:46.665Z,8.40
2017-08-25T11:57:13.253Z,5.87
2017-08-25T11:59:40.416Z,4.57
2017-08-25T12:02:07.012Z,10.03
2017-08-25T12:04:33.613Z,4.80
2017-08-25T12:07:00.188Z,4.90
2017-08-25T12:09:26.777Z,4.23
2017-08-25T12:11:53.430Z,6.50
2017-08-25T12:14:20.022Z,5.50
2017-08-25T12:16:46.625Z,5.87
2017-08-25T12:19:13.214Z,6.30
2017-08-25T12:21:39.871Z,9.47
2017-08-25T12:24:06.447Z,4.70
2017-08-25T12:26:33.040Z,6.57
2017-08-25T12:28:59.628Z,4.90
2017-08-25T12:31:26.205Z,5.87
2017-08-25T12:33:52.826Z,4.40
2017-08-25T12:36:19.394Z,3.70
2017-08-25T12:38:45.971Z,5.10
2017-08-25T12:41:12.548Z,4.27
2017-08-25T12:43:39.136Z,10.20
2017-08-25T12:46:05.712Z,7.33
2017-08-25T12:48:32.347Z,5.33
2017-08-25T12:50:58.937Z,5.27
2017-08-25T12:53:25.545Z,3.83
2017-08-25T12:55:52.173Z,6.27
2017-08-25T12:58:18.778Z,4.27
2017-08-25T13:00:45.384Z,4.13
2017-08-25T13:03:11.997Z,4.00
2017-08-25T13:05:38.610Z,3.60
2017-08-25T13:08:05.224Z,4.30
2017-08-25T13:10:31.836Z,3.93
2017-08-25T13:12:58.408Z,7.10
2017-08-25T13:15:24.981Z,5.40
2017-08-25T13:17:51.599Z,5.03
2017-08-25T13:20:18.177Z,6.70
2017-08-25T13:22:44.759Z,4.67
2017-08-25T13:25:11.356Z,3.90
2017-08-25T13:27:37.921Z,6.97
2017-08-25T13:30:04.492Z,3.43
2017-08-25T13:32:31.086Z,4.00
2017-08-25T13:34:57.657Z,4.07
2017-08-25T13:37:24.228Z,4.23
2017-08-25T13:39:54.541Z,4.97
2017-08-25T13:42:21.175Z,4.27
2017-08-25T13:44:47.736Z,6.00
2017-08-25T13:47:14.335Z,5.07
2017-08-25T13:49:40.978Z,5.50
2017-08-25T13:52:07.549Z,9.53
2017-08-25T13:54:34.172Z,4.87
2017-08-25T13:57:00.824Z,5.90
2017-08-25T13:59:27.400Z,5.50
2017-08-25T14:01:53.995Z,6.43
2017-08-25T14:04:20.573Z,6.90
2017-08-25T14:06:47.145Z,6.77
2017-08-25T14:09:13.728Z,3.30
2017-08-25T14:11:40.298Z,5.60
2017-08-25T14:14:06.868Z,3.87
2017-08-25T14:16:33.461Z,3.60
2017-08-25T14:19:00.033Z,4.20
2017-08-25T14:21:26.601Z,3.47
2017-08-25T14:23:53.206Z,6.10
2017-08-25T14:26:19.775Z,5.73
2017-08-25T14:28:46.341Z,7.50
2017-08-25T14:31:12.935Z,4.60
2017-08-25T14:33:39.510Z,4.37
2017-08-25T14:36:06.082Z,3.40
2017-08-25T14:38:32.669Z,7.90
2017-08-25T14:40:59.261Z,4.10
2017-08-25T14:43:25.821Z,4.37
2017-08-25T14:45:52.642Z,4.07
2017-08-25T14:48:19.317Z,4.43
2017-08-25T14:50:46.006Z,8.13
2017-08-25T14:53:12.665Z,4.10
2017-08-25T14:55:39.244Z,3.57
2017-08-25T14:58:05.949Z,3.93
2017-08-25T15:00:32.680Z,6.30
2017-08-25T15:02:59.256Z,30.47
2017-08-25T15:05:25.847Z,24.60
2017-08-25T15:07:52.434Z,24.50
2017-08-25T15:10:19.029Z,12.10
2017-08-25T15:12:45.629Z,12.53
2017-08-25T15:15:12.226Z,14.03
2017-08-25T15:17:38.937Z,11.10
2017-08-25T15:20:05.509Z,12.10
2017-08-25T15:22:32.614Z,8.37
2017-08-25T15:24:59.173Z,8.70
2017-08-25T15:27:25.744Z,7.20
2017-08-25T15:29:52.399Z,11.87
2017-08-25T15:32:18.965Z,13.97
2017-08-25T15:34:45.554Z,11.77
2017-08-25T15:37:12.204Z,8.37
2017-08-25T15:39:38.784Z,9.07
2017-08-25T15:42:05.355Z,7.53
2017-08-25T15:44:31.960Z,8.80
2017-08-25T15:46:58.534Z,8.77
2017-08-25T15:49:32.160Z,8.60
2017-08-25T15:51:58.736Z,9.33
2017-08-25T15:54:25.316Z,7.73
2017-08-25T15:56:52.068Z,11.70
2017-08-25T15:59:18.971Z,14.70
2017-08-25T16:01:46.361Z,9.43
2017-08-25T16:04:16.641Z,10.37
2017-08-25T16:06:43.236Z,9.23
2017-08-25T16:09:09.817Z,10.17
2017-08-25T16:11:36.409Z,11.43
2017-08-25T16:14:02.992Z,14.20
2017-08-25T16:16:29.635Z,7.83
2017-08-25T16:18:56.222Z,10.60
2017-08-25T16:21:22.829Z,8.67
2017-08-25T16:23:49.404Z,7.20
2017-08-25T16:26:16.014Z,7.73
2017-08-25T16:28:42.604Z,7.00
2017-08-25T16:31:09.214Z,6.57
2017-08-25T16:33:35.815Z,8.40
2017-08-25T16:36:02.374Z,6.60
2017-08-25T16:38:28.970Z,8.10
2017-08-25T16:40:55.561Z,9.30
2017-08-25T16:43:22.136Z,11.40
2017-08-25T16:45:48.721Z,6.10
2017-08-25T16:48:16.833Z,8.23
2017-08-25T16:50:43.414Z,7.20
2017-08-25T16:53:09.985Z,10.57
2017-08-25T16:55:36.573Z,7.47
2017-08-25T16:58:03.249Z,8.93
2017-08-25T17:00:29.833Z,7.90
2017-08-25T17:02:56.420Z,10.73
2017-08-25T17:05:23.004Z,9.07
2017-08-25T17:07:49.585Z,9.63
2017-08-25T17:10:16.170Z,8.47
2017-08-25T17:12:42.747Z,10.20
2017-08-25T17:15:09.324Z,10.30
2017-08-25T17:17:35.920Z,9.10
2017-08-25T17:20:02.520Z,10.50
2017-08-25T17:22:29.183Z,13.87
2017-08-25T17:24:55.813Z,7.40
2017-08-25T17:27:22.399Z,9.13
2017-08-25T17:29:48.977Z,8.13
2017-08-25T17:32:15.564Z,7.90
2017-08-25T17:34:42.140Z,8.57
2017-08-25T17:37:08.712Z,7.80
2017-08-25T17:39:35.321Z,9.83
2017-08-25T17:42:01.901Z,14.97
2017-08-25T17:44:28.473Z,9.50
2017-08-25T17:46:55.073Z,13.00
2017-08-25T17:49:21.650Z,8.23
2017-08-25T17:51:48.228Z,8.87
2017-08-25T17:54:14.823Z,9.80
2017-08-25T17:56:41.402Z,11.00
2017-08-25T17:59:07.972Z,8.30
2017-08-25T18:01:34.565Z,8.57
2017-08-25T18:04:01.136Z,9.77
2017-08-25T18:06:27.712Z,8.57
2017-08-25T18:08:54.302Z,10.33
2017-08-25T18:11:20.895Z,10.90
2017-08-25T18:13:47.468Z,9.20
2017-08-25T18:16:14.064Z,10.90
2017-08-25T18:18:40.719Z,8.80
2017-08-25T18:21:07.280Z,12.47
2017-08-25T18:23:33.876Z,13.60
2017-08-25T18:26:00.448Z,9.70
2017-08-25T18:28:27.030Z,12.00
2017-08-25T18:30:53.616Z,8.93
2017-08-25T18:33:20.188Z,9.00
2017-08-25T18:35:46.809Z,9.63
2017-08-25T18:38:13.409Z,9.37
2017-08-25T18:40:39.978Z,8.33
2017-08-25T18:43:06.563Z,8.00
2017-08-25T18:45:33.142Z,9.97
2017-08-25T18:47:59.721Z,10.70
2017-08-25T18:50:26.293Z,8.97
2017-08-25T18:52:52.888Z,9.70
2017-08-25T18:55:19.480Z,11.70
2017-08-25T18:57:46.064Z,11.93
2017-08-25T19:00:12.669Z,11.37
2017-08-25T19:02:39.349Z,10.10
2017-08-25T19:05:06.020Z,10.50
2017-08-25T19:07:32.607Z,9.50
2017-08-25T19:09:59.180Z,9.10
2017-08-25T19:12:25.766Z,10.97
2017-08-25T19:14:52.381Z,12.03
2017-08-25T19:17:18.945Z,14.13
2017-08-25T19:19:45.524Z,9.13
2017-08-25T19:22:12.121Z,10.27
2017-08-25T19:24:38.701Z,11.33
2017-08-25T19:27:05.272Z,9.33
2017-08-25T19:29:31.881Z,8.50
2017-08-25T19:31:58.465Z,12.93
2017-08-25T19:34:25.038Z,11.60
2017-08-25T19:36:51.629Z,10.33
2017-08-25T19:39:18.199Z,8.70
2017-08-25T19:41:44.772Z,10.27
2017-08-25T19:44:11.374Z,11.37
2017-08-25T19:46:37.960Z,12.83
2017-08-25T19:49:04.533Z,9.93
2017-08-25T19:51:31.117Z,9.60
2017-08-25T19:53:57.706Z,16.20
2017-08-25T19:56:24.343Z,12.37
2017-08-25T19:58:50.938Z,13.03
2017-08-25T20:01:17.510Z,10.90
2017-08-25T20:03:44.161Z,10.50
2017-08-25T20:06:10.752Z,10.83
2017-08-25T20:08:37.320Z,9.73
2017-08-25T20:11:03.929Z,11.20
2017-08-25T20:13:30.515Z,10.20
2017-08-25T20:15:57.100Z,10.40
2017-08-25T20:18:23.672Z,10.17
2017-08-25T20:20:50.294Z,8.67
2017-08-25T20:23:16.869Z,10.80
2017-08-25T20:25:43.444Z,10.37
2017-08-25T20:28:10.032Z,9.20
2017-08-25T20:30:36.601Z,9.03
2017-08-25T20:33:03.177Z,11.40
2017-08-25T20:35:29.762Z,9.80
2017-08-25T20:37:56.386Z,9.73
2017-08-25T20:40:22.955Z,11.40
2017-08-25T20:42:49.553Z,11.13
2017-08-25T20:45:16.131Z,11.00
2017-08-25T20:47:42.705Z,12.87
2017-08-25T20:50:09.294Z,9.40
2017-08-25T20:52:35.872Z,10.50
2017-08-25T20:55:02.451Z,10.17
2017-08-25T20:57:29.039Z,9.70
2017-08-25T20:59:55.621Z,11.13
2017-08-25T21:02:22.216Z,14.30
2017-08-25T21:04:48.810Z,11.90
2017-08-25T21:07:15.389Z,11.70
2017-08-25T21:09:41.965Z,10.23
2017-08-25T21:12:08.570Z,11.53
2017-08-25T21:14:35.149Z,10.97
2017-08-25T21:17:01.729Z,13.87
2017-08-25T21:19:28.304Z,8.90
2017-08-25T21:21:54.888Z,9.53
2017-08-25T21:24:21.458Z,9.50
2017-08-25T21:26:48.044Z,12.73
2017-08-25T21:29:14.620Z,12.23
2017-08-25T21:31:41.197Z,11.03
2017-08-25T21:34:07.820Z,9.20
2017-08-25T21:36:34.405Z,10.00
2017-08-25T21:39:00.977Z,11.33
2017-08-25T21:41:27.561Z,10.70
2017-08-25T21:43:54.132Z,9.10
2017-08-25T21:46:20.701Z,10.20
2017-08-25T21:48:47.285Z,9.07
2017-08-25T21:51:13.865Z,15.97
2017-08-25T21:53:40.441Z,10.30
2017-08-25T21:56:07.037Z,10.03
2017-08-25T21:58:33.670Z,10.60
2017-08-25T22:01:00.237Z,9.17
2017-08-25T22:03:26.942Z,13.30
2017-08-25T22:05:53.493Z,9.37
2017-08-25T22:08:20.065Z,13.17
2017-08-25T22:10:46.656Z,17.40
2017-08-25T22:13:13.237Z,10.00
2017-08-25T22:15:39.808Z,11.40
2017-08-25T22:18:06.405Z,13.00
2017-08-25T22:20:32.991Z,11.53
2017-08-25T22:22:59.566Z,31.13
2017-08-25T22:25:26.165Z,35.27
2017-08-25T22:27:52.769Z,18.07
2017-08-25T22:30:19.355Z,24.03
2017-08-25T22:32:45.950Z,22.07
2017-08-25T22:35:12.529Z,19.13
2017-08-25T22:37:39.108Z,21.70
2017-08-25T22:42:38.725Z,20.67
2017-08-25T22:45:05.346Z,20.70
2017-08-25T22:47:31.944Z,18.87
2017-08-25T22:49:58.581Z,18.40
2017-08-25T22:52:25.178Z,18.67
2017-08-25T22:54:51.757Z,21.93
2017-08-25T22:57:18.344Z,26.90
2017-08-25T22:59:44.945Z,23.40
2017-08-25T23:02:11.519Z,18.53
2017-08-25T23:04:38.101Z,37.83
2017-08-25T23:07:04.729Z,19.23
2017-08-25T23:09:31.313Z,23.47
2017-08-25T23:11:57.895Z,27.53
2017-08-25T23:14:24.485Z,56.27
2017-08-25T23:16:51.072Z,28.87
2017-08-25T23:19:17.677Z,23.77
2017-08-25T23:21:44.283Z,20.40
2017-08-25T23:24:10.903Z,19.83
2017-08-25T23:26:37.524Z,24.50
2017-08-25T23:29:04.116Z,21.83
2017-08-25T23:31:30.693Z,21.30
2017-08-25T23:33:57.280Z,19.33
2017-08-25T23:36:24.700Z,19.23
2017-08-25T23:38:51.281Z,18.03
2017-08-25T23:41:17.852Z,23.03
2017-08-25T23:43:44.458Z,22.23
2017-08-25T23:46:11.033Z,20.73
2017-08-25T23:48:37.626Z,21.30
2017-08-25T23:51:04.209Z,21.17
2017-08-25T23:53:30.792Z,19.17
2017-08-25T23:55:57.373Z,22.80
2017-08-25T23:58:23.966Z,21.57
